sensor_id;sensor_type;location;lat;lon;timestamp;temperature;humidity
26707;DHT22;14319;49.422;10.934;2023-03-23T00:01:23;9.60;81.80
26707;DHT22;14319;49.422;10.934;2023-03-23T00:03:24;9.60;81.80
26707;DHT22;14319;49.422;10.934;2023-03-23T00:05:29;9.60;81.90
26707;DHT22;14319;49.422;10.934;2023-03-23T00:07:30;9.60;82.50
26707;DHT22;14319;49.422;10.934;2023-03-23T00:09:30;9.60;82.20
26707;DHT22;14319;49.422;10.934;2023-03-23T00:11:34;9.60;82.00
26707;DHT22;14319;49.422;10.934;2023-03-23T00:13:35;9.60;81.70
26707;DHT22;14319;49.422;10.934;2023-03-23T00:15:37;9.60;82.00
26707;DHT22;14319;49.422;10.934;2023-03-23T00:17:41;9.60;82.10
26707;DHT22;14319;49.422;10.934;2023-03-23T00:19:43;9.70;81.80
26707;DHT22;14319;49.422;10.934;2023-03-23T00:21:46;9.70;81.60
26707;DHT22;14319;49.422;10.934;2023-03-23T00:23:47;9.70;82.00
26707;DHT22;14319;49.422;10.934;2023-03-23T00:25:53;9.60;81.60
26707;DHT22;14319;49.422;10.934;2023-03-23T00:27:56;9.60;82.20
26707;DHT22;14319;49.422;10.934;2023-03-23T00:29:57;9.60;82.10
26707;DHT22;14319;49.422;10.934;2023-03-23T00:31:58;9.70;82.40
26707;DHT22;14319;49.422;10.934;2023-03-23T00:33:59;9.70;82.00
26707;DHT22;14319;49.422;10.934;2023-03-23T00:36:01;9.90;81.90
26707;DHT22;14319;49.422;10.934;2023-03-23T00:38:03;9.90;80.90
26707;DHT22;14319;49.422;10.934;2023-03-23T00:40:05;10.00;78.30
26707;DHT22;14319;49.422;10.934;2023-03-23T00:42:13;10.10;76.40
26707;DHT22;14319;49.422;10.934;2023-03-23T00:44:14;10.30;75.30
26707;DHT22;14319;49.422;10.934;2023-03-23T00:46:18;10.30;77.60
26707;DHT22;14319;49.422;10.934;2023-03-23T00:48:22;9.80;79.90
26707;DHT22;14319;49.422;10.934;2023-03-23T00:50:23;9.80;80.30
26707;DHT22;14319;49.422;10.934;2023-03-23T00:52:24;9.80;80.20
26707;DHT22;14319;49.422;10.934;2023-03-23T00:54:25;9.90;79.50
26707;DHT22;14319;49.422;10.934;2023-03-23T00:56:26;9.80;80.30
26707;DHT22;14319;49.422;10.934;2023-03-23T00:58:26;9.70;80.80
26707;DHT22;14319;49.422;10.934;2023-03-23T01:00:27;9.60;80.20
26707;DHT22;14319;49.422;10.934;2023-03-23T01:02:28;9.70;80.40
26707;DHT22;14319;49.422;10.934;2023-03-23T01:04:28;9.70;81.20
26707;DHT22;14319;49.422;10.934;2023-03-23T01:06:34;9.70;81.20
26707;DHT22;14319;49.422;10.934;2023-03-23T01:08:41;9.80;79.90
26707;DHT22;14319;49.422;10.934;2023-03-23T01:10:45;9.90;79.40
26707;DHT22;14319;49.422;10.934;2023-03-23T01:12:46;10.00;79.10
26707;DHT22;14319;49.422;10.934;2023-03-23T01:14:47;10.00;77.50
26707;DHT22;14319;49.422;10.934;2023-03-23T01:16:48;10.10;76.70
26707;DHT22;14319;49.422;10.934;2023-03-23T01:18:48;10.20;77.20
26707;DHT22;14319;49.422;10.934;2023-03-23T01:20:49;9.80;80.60
26707;DHT22;14319;49.422;10.934;2023-03-23T01:22:50;9.70;80.20
26707;DHT22;14319;49.422;10.934;2023-03-23T01:24:51;9.80;80.10
26707;DHT22;14319;49.422;10.934;2023-03-23T01:26:51;9.60;80.40
26707;DHT22;14319;49.422;10.934;2023-03-23T01:28:52;9.60;80.90
26707;DHT22;14319;49.422;10.934;2023-03-23T01:30:52;9.60;78.90
26707;DHT22;14319;49.422;10.934;2023-03-23T01:32:54;9.70;80.10
26707;DHT22;14319;49.422;10.934;2023-03-23T01:34:55;9.70;80.20
26707;DHT22;14319;49.422;10.934;2023-03-23T01:36:56;9.80;78.70
26707;DHT22;14319;49.422;10.934;2023-03-23T01:38:56;9.90;79.00
26707;DHT22;14319;49.422;10.934;2023-03-23T01:40:58;10.00;77.10
26707;DHT22;14319;49.422;10.934;2023-03-23T01:42:59;10.20;75.10
26707;DHT22;14319;49.422;10.934;2023-03-23T01:47:22;10.50;72.30
26707;DHT22;14319;49.422;10.934;2023-03-23T01:49:28;10.60;72.00
26707;DHT22;14319;49.422;10.934;2023-03-23T01:51:30;10.80;71.70
26707;DHT22;14319;49.422;10.934;2023-03-23T01:53:38;10.90;70.80
26707;DHT22;14319;49.422;10.934;2023-03-23T01:55:41;11.10;70.50
26707;DHT22;14319;49.422;10.934;2023-03-23T01:57:43;11.10;69.60
26707;DHT22;14319;49.422;10.934;2023-03-23T01:59:47;11.10;69.70
26707;DHT22;14319;49.422;10.934;2023-03-23T02:01:59;11.30;69.40
26707;DHT22;14319;49.422;10.934;2023-03-23T02:04:01;11.40;68.00
26707;DHT22;14319;49.422;10.934;2023-03-23T02:06:02;11.40;68.40
26707;DHT22;14319;49.422;10.934;2023-03-23T02:08:11;11.50;68.30
26707;DHT22;14319;49.422;10.934;2023-03-23T02:10:14;11.50;68.50
26707;DHT22;14319;49.422;10.934;2023-03-23T02:12:16;11.50;68.30
26707;DHT22;14319;49.422;10.934;2023-03-23T02:14:17;11.40;68.80
26707;DHT22;14319;49.422;10.934;2023-03-23T02:16:27;11.40;68.80
26707;DHT22;14319;49.422;10.934;2023-03-23T02:23:56;11.40;68.80
26707;DHT22;14319;49.422;10.934;2023-03-23T02:26:23;11.40;68.70
26707;DHT22;14319;49.422;10.934;2023-03-23T02:33:14;11.70;67.30
26707;DHT22;14319;49.422;10.934;2023-03-23T02:37:45;11.80;67.40
26707;DHT22;14319;49.422;10.934;2023-03-23T02:39:47;11.80;66.80
26707;DHT22;14319;49.422;10.934;2023-03-23T02:41:57;11.70;66.70
26707;DHT22;14319;49.422;10.934;2023-03-23T02:44:02;11.80;66.30
26707;DHT22;14319;49.422;10.934;2023-03-23T02:46:06;11.80;66.50
26707;DHT22;14319;49.422;10.934;2023-03-23T02:48:08;11.80;67.20
26707;DHT22;14319;49.422;10.934;2023-03-23T02:50:13;11.80;66.80
26707;DHT22;14319;49.422;10.934;2023-03-23T02:52:20;11.80;67.00
26707;DHT22;14319;49.422;10.934;2023-03-23T02:54:23;11.80;66.10
26707;DHT22;14319;49.422;10.934;2023-03-23T02:56:26;11.80;66.20
26707;DHT22;14319;49.422;10.934;2023-03-23T02:58:29;11.80;67.00
26707;DHT22;14319;49.422;10.934;2023-03-23T03:00:31;11.80;65.90
26707;DHT22;14319;49.422;10.934;2023-03-23T03:02:36;11.80;66.30
26707;DHT22;14319;49.422;10.934;2023-03-23T03:04:43;11.80;65.90
26707;DHT22;14319;49.422;10.934;2023-03-23T03:07:07;11.90;65.40
26707;DHT22;14319;49.422;10.934;2023-03-23T03:09:42;11.90;66.00
26707;DHT22;14319;49.422;10.934;2023-03-23T03:11:50;11.90;65.40
26707;DHT22;14319;49.422;10.934;2023-03-23T03:14:08;12.00;65.60
26707;DHT22;14319;49.422;10.934;2023-03-23T03:20:53;12.20;64.70
26707;DHT22;14319;49.422;10.934;2023-03-23T03:22:57;12.10;64.30
26707;DHT22;14319;49.422;10.934;2023-03-23T03:25:00;12.10;64.00
26707;DHT22;14319;49.422;10.934;2023-03-23T03:27:02;12.10;64.40
26707;DHT22;14319;49.422;10.934;2023-03-23T03:29:16;12.10;64.40
26707;DHT22;14319;49.422;10.934;2023-03-23T03:31:23;12.00;64.40
26707;DHT22;14319;49.422;10.934;2023-03-23T03:33:24;11.90;64.30
26707;DHT22;14319;49.422;10.934;2023-03-23T03:35:30;11.80;65.10
26707;DHT22;14319;49.422;10.934;2023-03-23T03:37:36;11.90;64.80
26707;DHT22;14319;49.422;10.934;2023-03-23T03:39:38;11.80;64.60
26707;DHT22;14319;49.422;10.934;2023-03-23T03:41:38;11.80;65.30
26707;DHT22;14319;49.422;10.934;2023-03-23T03:43:39;11.80;65.00
26707;DHT22;14319;49.422;10.934;2023-03-23T03:45:40;11.70;65.00
26707;DHT22;14319;49.422;10.934;2023-03-23T03:47:42;11.70;64.50
26707;DHT22;14319;49.422;10.934;2023-03-23T03:49:43;11.70;65.30
26707;DHT22;14319;49.422;10.934;2023-03-23T03:51:43;11.70;65.40
26707;DHT22;14319;49.422;10.934;2023-03-23T03:53:52;11.70;65.50
26707;DHT22;14319;49.422;10.934;2023-03-23T03:55:52;11.70;65.20
26707;DHT22;14319;49.422;10.934;2023-03-23T03:58:04;11.60;65.30
26707;DHT22;14319;49.422;10.934;2023-03-23T04:00:25;11.70;66.20
26707;DHT22;14319;49.422;10.934;2023-03-23T04:02:25;11.70;67.10
26707;DHT22;14319;49.422;10.934;2023-03-23T04:04:27;11.70;67.30
26707;DHT22;14319;49.422;10.934;2023-03-23T04:06:28;11.70;68.00
26707;DHT22;14319;49.422;10.934;2023-03-23T04:08:29;11.60;68.00
26707;DHT22;14319;49.422;10.934;2023-03-23T04:10:31;11.60;67.70
26707;DHT22;14319;49.422;10.934;2023-03-23T04:12:33;11.60;67.70
26707;DHT22;14319;49.422;10.934;2023-03-23T04:15:12;11.60;68.50
26707;DHT22;14319;49.422;10.934;2023-03-23T04:17:14;11.60;69.10
26707;DHT22;14319;49.422;10.934;2023-03-23T04:19:15;11.60;68.60
26707;DHT22;14319;49.422;10.934;2023-03-23T04:21:16;11.50;68.60
26707;DHT22;14319;49.422;10.934;2023-03-23T04:23:20;11.60;68.40
26707;DHT22;14319;49.422;10.934;2023-03-23T04:25:22;11.60;68.50
26707;DHT22;14319;49.422;10.934;2023-03-23T04:27:27;11.60;69.40
26707;DHT22;14319;49.422;10.934;2023-03-23T04:29:29;11.50;69.00
26707;DHT22;14319;49.422;10.934;2023-03-23T04:31:49;11.60;68.90
26707;DHT22;14319;49.422;10.934;2023-03-23T04:34:01;11.50;68.90
26707;DHT22;14319;49.422;10.934;2023-03-23T04:36:08;11.50;68.80
26707;DHT22;14319;49.422;10.934;2023-03-23T04:38:16;11.40;69.10
26707;DHT22;14319;49.422;10.934;2023-03-23T04:40:20;11.40;69.70
26707;DHT22;14319;49.422;10.934;2023-03-23T04:42:31;11.40;69.80
26707;DHT22;14319;49.422;10.934;2023-03-23T04:44:51;11.40;69.70
26707;DHT22;14319;49.422;10.934;2023-03-23T04:47:02;11.40;70.50
26707;DHT22;14319;49.422;10.934;2023-03-23T04:49:07;11.40;70.70
26707;DHT22;14319;49.422;10.934;2023-03-23T04:51:11;11.30;70.20
26707;DHT22;14319;49.422;10.934;2023-03-23T04:53:17;11.30;70.60
26707;DHT22;14319;49.422;10.934;2023-03-23T04:55:19;11.30;70.90
26707;DHT22;14319;49.422;10.934;2023-03-23T04:57:27;11.40;70.60
26707;DHT22;14319;49.422;10.934;2023-03-23T05:00:02;11.30;70.10
26707;DHT22;14319;49.422;10.934;2023-03-23T05:02:15;11.30;70.70
26707;DHT22;14319;49.422;10.934;2023-03-23T05:04:19;11.30;71.60
26707;DHT22;14319;49.422;10.934;2023-03-23T05:06:41;11.30;71.00
26707;DHT22;14319;49.422;10.934;2023-03-23T05:08:50;11.10;72.50
26707;DHT22;14319;49.422;10.934;2023-03-23T05:10:56;11.10;73.20
26707;DHT22;14319;49.422;10.934;2023-03-23T05:12:59;11.00;72.60
26707;DHT22;14319;49.422;10.934;2023-03-23T05:15:00;11.10;73.30
26707;DHT22;14319;49.422;10.934;2023-03-23T05:17:03;11.10;73.00
26707;DHT22;14319;49.422;10.934;2023-03-23T05:19:04;11.10;73.30
26707;DHT22;14319;49.422;10.934;2023-03-23T05:21:06;11.10;72.10
26707;DHT22;14319;49.422;10.934;2023-03-23T05:23:10;11.20;71.40
26707;DHT22;14319;49.422;10.934;2023-03-23T05:25:13;11.20;70.00
26707;DHT22;14319;49.422;10.934;2023-03-23T05:27:18;11.10;70.80
26707;DHT22;14319;49.422;10.934;2023-03-23T05:29:22;11.00;71.10
26707;DHT22;14319;49.422;10.934;2023-03-23T05:31:35;11.10;72.10
26707;DHT22;14319;49.422;10.934;2023-03-23T05:33:35;11.10;72.20
26707;DHT22;14319;49.422;10.934;2023-03-23T05:35:54;11.10;72.50
26707;DHT22;14319;49.422;10.934;2023-03-23T05:38:01;11.10;72.80
26707;DHT22;14319;49.422;10.934;2023-03-23T05:40:02;11.10;72.20
26707;DHT22;14319;49.422;10.934;2023-03-23T05:42:06;11.20;72.10
26707;DHT22;14319;49.422;10.934;2023-03-23T05:44:43;11.20;71.50
26707;DHT22;14319;49.422;10.934;2023-03-23T05:46:46;11.30;70.90
26707;DHT22;14319;49.422;10.934;2023-03-23T05:48:50;11.30;70.60
26707;DHT22;14319;49.422;10.934;2023-03-23T05:50:55;11.40;70.10
26707;DHT22;14319;49.422;10.934;2023-03-23T05:52:57;11.50;69.70
26707;DHT22;14319;49.422;10.934;2023-03-23T05:54:59;11.50;69.50
26707;DHT22;14319;49.422;10.934;2023-03-23T05:57:00;11.50;69.20
26707;DHT22;14319;49.422;10.934;2023-03-23T05:59:16;11.50;68.50
26707;DHT22;14319;49.422;10.934;2023-03-23T06:01:19;11.60;68.30
26707;DHT22;14319;49.422;10.934;2023-03-23T06:03:20;11.60;68.80
26707;DHT22;14319;49.422;10.934;2023-03-23T06:05:27;11.60;70.00
26707;DHT22;14319;49.422;10.934;2023-03-23T06:07:29;11.60;70.90
26707;DHT22;14319;49.422;10.934;2023-03-23T06:09:37;11.70;70.80
26707;DHT22;14319;49.422;10.934;2023-03-23T06:12:00;11.70;70.80
26707;DHT22;14319;49.422;10.934;2023-03-23T06:14:27;11.80;70.10
26707;DHT22;14319;49.422;10.934;2023-03-23T06:16:29;11.90;69.20
26707;DHT22;14319;49.422;10.934;2023-03-23T06:18:31;11.90;67.20
26707;DHT22;14319;49.422;10.934;2023-03-23T06:20:46;12.10;67.80
26707;DHT22;14319;49.422;10.934;2023-03-23T06:22:59;12.10;67.10
26707;DHT22;14319;49.422;10.934;2023-03-23T06:25:04;12.20;67.10
26707;DHT22;14319;49.422;10.934;2023-03-23T06:27:12;12.20;66.70
26707;DHT22;14319;49.422;10.934;2023-03-23T06:29:16;12.20;66.80
26707;DHT22;14319;49.422;10.934;2023-03-23T06:31:21;12.30;67.30
26707;DHT22;14319;49.422;10.934;2023-03-23T06:33:23;12.30;66.00
26707;DHT22;14319;49.422;10.934;2023-03-23T06:35:53;12.40;65.90
26707;DHT22;14319;49.422;10.934;2023-03-23T06:38:05;12.40;65.60
26707;DHT22;14319;49.422;10.934;2023-03-23T06:40:23;12.60;66.30
26707;DHT22;14319;49.422;10.934;2023-03-23T06:42:30;12.80;65.30
26707;DHT22;14319;49.422;10.934;2023-03-23T06:45:07;12.80;65.00
26707;DHT22;14319;49.422;10.934;2023-03-23T06:47:10;12.90;64.80
26707;DHT22;14319;49.422;10.934;2023-03-23T06:49:16;13.00;65.50
26707;DHT22;14319;49.422;10.934;2023-03-23T06:51:24;13.10;67.00
26707;DHT22;14319;49.422;10.934;2023-03-23T06:53:27;13.20;67.20
26707;DHT22;14319;49.422;10.934;2023-03-23T06:55:30;13.10;65.70
26707;DHT22;14319;49.422;10.934;2023-03-23T06:57:31;13.20;66.20
26707;DHT22;14319;49.422;10.934;2023-03-23T06:59:31;13.20;66.10
26707;DHT22;14319;49.422;10.934;2023-03-23T07:01:33;13.30;65.50
26707;DHT22;14319;49.422;10.934;2023-03-23T07:03:35;13.40;65.40
26707;DHT22;14319;49.422;10.934;2023-03-23T07:05:37;13.50;63.90
26707;DHT22;14319;49.422;10.934;2023-03-23T07:07:39;13.60;64.00
26707;DHT22;14319;49.422;10.934;2023-03-23T07:09:58;13.80;63.40
26707;DHT22;14319;49.422;10.934;2023-03-23T07:11:59;13.70;65.00
26707;DHT22;14319;49.422;10.934;2023-03-23T07:14:07;13.70;66.20
26707;DHT22;14319;49.422;10.934;2023-03-23T07:16:09;13.50;67.30
26707;DHT22;14319;49.422;10.934;2023-03-23T07:18:11;13.40;68.10
26707;DHT22;14319;49.422;10.934;2023-03-23T07:20:18;13.40;69.70
26707;DHT22;14319;49.422;10.934;2023-03-23T07:22:19;13.30;67.70
26707;DHT22;14319;49.422;10.934;2023-03-23T07:24:27;13.40;67.80
26707;DHT22;14319;49.422;10.934;2023-03-23T07:26:42;13.50;66.00
26707;DHT22;14319;49.422;10.934;2023-03-23T07:28:43;13.60;66.80
26707;DHT22;14319;49.422;10.934;2023-03-23T07:31:00;13.50;67.00
26707;DHT22;14319;49.422;10.934;2023-03-23T07:33:05;13.40;68.90
26707;DHT22;14319;49.422;10.934;2023-03-23T07:35:07;13.40;69.70
26707;DHT22;14319;49.422;10.934;2023-03-23T07:37:17;13.40;69.50
26707;DHT22;14319;49.422;10.934;2023-03-23T07:39:21;13.50;67.10
26707;DHT22;14319;49.422;10.934;2023-03-23T07:41:27;13.70;66.90
26707;DHT22;14319;49.422;10.934;2023-03-23T07:43:29;13.80;65.70
26707;DHT22;14319;49.422;10.934;2023-03-23T07:45:45;13.80;65.90
26707;DHT22;14319;49.422;10.934;2023-03-23T07:47:48;13.90;66.90
26707;DHT22;14319;49.422;10.934;2023-03-23T07:49:49;14.00;64.50
26707;DHT22;14319;49.422;10.934;2023-03-23T07:51:57;14.10;65.40
26707;DHT22;14319;49.422;10.934;2023-03-23T07:53:58;14.20;64.40
26707;DHT22;14319;49.422;10.934;2023-03-23T07:56:18;14.20;63.50
26707;DHT22;14319;49.422;10.934;2023-03-23T07:58:32;14.30;64.60
26707;DHT22;14319;49.422;10.934;2023-03-23T08:00:33;14.50;65.20
26707;DHT22;14319;49.422;10.934;2023-03-23T08:02:38;14.60;64.20
26707;DHT22;14319;49.422;10.934;2023-03-23T08:05:04;14.60;64.60
26707;DHT22;14319;49.422;10.934;2023-03-23T08:07:20;14.60;66.00
26707;DHT22;14319;49.422;10.934;2023-03-23T08:09:36;14.50;65.70
26707;DHT22;14319;49.422;10.934;2023-03-23T08:11:54;14.40;64.20
26707;DHT22;14319;49.422;10.934;2023-03-23T08:14:15;14.30;63.80
26707;DHT22;14319;49.422;10.934;2023-03-23T08:16:44;14.30;64.80
26707;DHT22;14319;49.422;10.934;2023-03-23T08:19:10;14.30;65.30
26707;DHT22;14319;49.422;10.934;2023-03-23T08:21:31;14.20;64.00
26707;DHT22;14319;49.422;10.934;2023-03-23T08:23:45;14.20;64.70
26707;DHT22;14319;49.422;10.934;2023-03-23T08:25:47;14.30;66.30
26707;DHT22;14319;49.422;10.934;2023-03-23T08:28:03;14.20;66.10
26707;DHT22;14319;49.422;10.934;2023-03-23T08:30:28;14.20;66.00
26707;DHT22;14319;49.422;10.934;2023-03-23T08:32:51;14.20;65.60
26707;DHT22;14319;49.422;10.934;2023-03-23T08:35:21;14.20;64.80
26707;DHT22;14319;49.422;10.934;2023-03-23T08:37:37;14.10;65.70
26707;DHT22;14319;49.422;10.934;2023-03-23T08:39:57;14.10;66.50
26707;DHT22;14319;49.422;10.934;2023-03-23T08:42:37;14.10;66.60
26707;DHT22;14319;49.422;10.934;2023-03-23T08:44:58;14.10;67.30
26707;DHT22;14319;49.422;10.934;2023-03-23T08:47:24;14.20;67.20
26707;DHT22;14319;49.422;10.934;2023-03-23T08:49:41;14.30;65.30
26707;DHT22;14319;49.422;10.934;2023-03-23T08:51:59;14.30;66.30
26707;DHT22;14319;49.422;10.934;2023-03-23T08:54:20;14.40;66.80
26707;DHT22;14319;49.422;10.934;2023-03-23T08:56:39;14.50;65.60
26707;DHT22;14319;49.422;10.934;2023-03-23T08:59:00;14.50;66.10
26707;DHT22;14319;49.422;10.934;2023-03-23T09:01:12;14.50;65.80
26707;DHT22;14319;49.422;10.934;2023-03-23T09:03:18;14.60;65.70
26707;DHT22;14319;49.422;10.934;2023-03-23T09:05:33;14.70;65.80
26707;DHT22;14319;49.422;10.934;2023-03-23T09:07:55;14.70;65.30
26707;DHT22;14319;49.422;10.934;2023-03-23T09:09:56;14.80;65.80
26707;DHT22;14319;49.422;10.934;2023-03-23T09:11:57;14.90;65.30
26707;DHT22;14319;49.422;10.934;2023-03-23T09:13:57;14.90;64.30
26707;DHT22;14319;49.422;10.934;2023-03-23T09:15:58;15.00;64.50
26707;DHT22;14319;49.422;10.934;2023-03-23T09:17:59;15.10;63.90
26707;DHT22;14319;49.422;10.934;2023-03-23T09:20:01;15.00;65.10
26707;DHT22;14319;49.422;10.934;2023-03-23T09:22:03;15.10;64.80
26707;DHT22;14319;49.422;10.934;2023-03-23T09:24:04;15.10;63.50
26707;DHT22;14319;49.422;10.934;2023-03-23T09:26:05;15.20;63.90
26707;DHT22;14319;49.422;10.934;2023-03-23T09:28:06;15.30;63.80
26707;DHT22;14319;49.422;10.934;2023-03-23T09:30:10;15.40;63.60
26707;DHT22;14319;49.422;10.934;2023-03-23T09:32:11;15.40;63.30
26707;DHT22;14319;49.422;10.934;2023-03-23T09:34:14;15.40;63.90
26707;DHT22;14319;49.422;10.934;2023-03-23T09:36:18;15.50;63.80
26707;DHT22;14319;49.422;10.934;2023-03-23T09:38:21;15.50;63.00
26707;DHT22;14319;49.422;10.934;2023-03-23T09:40:25;15.50;63.80
26707;DHT22;14319;49.422;10.934;2023-03-23T09:43:09;15.60;63.80
26707;DHT22;14319;49.422;10.934;2023-03-23T09:45:29;15.60;63.50
26707;DHT22;14319;49.422;10.934;2023-03-23T09:48:02;15.70;63.80
26707;DHT22;14319;49.422;10.934;2023-03-23T09:50:16;15.80;63.50
26707;DHT22;14319;49.422;10.934;2023-03-23T09:52:19;16.00;62.90
26707;DHT22;14319;49.422;10.934;2023-03-23T09:56:21;16.20;61.80
26707;DHT22;14319;49.422;10.934;2023-03-23T09:58:36;16.20;61.70
26707;DHT22;14319;49.422;10.934;2023-03-23T10:00:50;16.10;61.60
26707;DHT22;14319;49.422;10.934;2023-03-23T10:03:03;16.10;61.10
26707;DHT22;14319;49.422;10.934;2023-03-23T10:07:20;16.00;61.20
26707;DHT22;14319;49.422;10.934;2023-03-23T10:09:21;15.90;62.70
26707;DHT22;14319;49.422;10.934;2023-03-23T10:14:07;15.80;63.10
26707;DHT22;14319;49.422;10.934;2023-03-23T10:16:15;15.80;64.90
26707;DHT22;14319;49.422;10.934;2023-03-23T10:18:27;15.80;65.90
26707;DHT22;14319;49.422;10.934;2023-03-23T10:20:55;15.70;66.00
26707;DHT22;14319;49.422;10.934;2023-03-23T10:23:20;15.60;64.80
26707;DHT22;14319;49.422;10.934;2023-03-23T10:25:29;15.40;64.80
26707;DHT22;14319;49.422;10.934;2023-03-23T10:32:40;15.10;66.80
26707;DHT22;14319;49.422;10.934;2023-03-23T10:34:58;15.00;64.90
26707;DHT22;14319;49.422;10.934;2023-03-23T10:39:30;14.80;66.20
26707;DHT22;14319;49.422;10.934;2023-03-23T10:41:32;14.90;65.50
26707;DHT22;14319;49.422;10.934;2023-03-23T10:43:32;14.90;65.30
26707;DHT22;14319;49.422;10.934;2023-03-23T10:45:34;14.90;66.30
26707;DHT22;14319;49.422;10.934;2023-03-23T10:47:37;14.70;66.40
26707;DHT22;14319;49.422;10.934;2023-03-23T10:49:48;14.70;66.80
26707;DHT22;14319;49.422;10.934;2023-03-23T10:54:26;14.50;68.90
26707;DHT22;14319;49.422;10.934;2023-03-23T10:56:37;14.60;68.20
26707;DHT22;14319;49.422;10.934;2023-03-23T10:58:41;14.60;67.90
26707;DHT22;14319;49.422;10.934;2023-03-23T11:00:44;14.50;69.00
26707;DHT22;14319;49.422;10.934;2023-03-23T11:03:06;14.60;68.20
26707;DHT22;14319;49.422;10.934;2023-03-23T11:05:19;14.60;68.10
26707;DHT22;14319;49.422;10.934;2023-03-23T11:07:25;14.70;68.20
26707;DHT22;14319;49.422;10.934;2023-03-23T11:09:38;14.70;67.90
26707;DHT22;14319;49.422;10.934;2023-03-23T11:11:54;14.70;68.80
26707;DHT22;14319;49.422;10.934;2023-03-23T11:14:12;14.50;68.50
26707;DHT22;14319;49.422;10.934;2023-03-23T11:16:29;14.60;68.80
26707;DHT22;14319;49.422;10.934;2023-03-23T11:18:39;14.70;68.60
26707;DHT22;14319;49.422;10.934;2023-03-23T11:20:43;14.70;69.40
26707;DHT22;14319;49.422;10.934;2023-03-23T11:22:44;14.70;70.00
26707;DHT22;14319;49.422;10.934;2023-03-23T11:24:47;14.70;69.10
26707;DHT22;14319;49.422;10.934;2023-03-23T11:26:52;14.80;69.00
26707;DHT22;14319;49.422;10.934;2023-03-23T11:30:59;14.90;68.90
26707;DHT22;14319;49.422;10.934;2023-03-23T11:33:02;14.90;68.90
26707;DHT22;14319;49.422;10.934;2023-03-23T11:35:06;15.00;68.90
26707;DHT22;14319;49.422;10.934;2023-03-23T11:37:15;14.90;69.20
26707;DHT22;14319;49.422;10.934;2023-03-23T11:39:24;15.00;69.00
26707;DHT22;14319;49.422;10.934;2023-03-23T11:41:32;15.10;68.90
26707;DHT22;14319;49.422;10.934;2023-03-23T11:43:37;15.20;68.70
26707;DHT22;14319;49.422;10.934;2023-03-23T11:46:15;15.30;68.90
26707;DHT22;14319;49.422;10.934;2023-03-23T11:53:18;15.30;69.40
26707;DHT22;14319;49.422;10.934;2023-03-23T11:55:27;15.30;69.20
26707;DHT22;14319;49.422;10.934;2023-03-23T11:57:29;15.30;70.10
26707;DHT22;14319;49.422;10.934;2023-03-23T11:59:33;15.40;69.00
26707;DHT22;14319;49.422;10.934;2023-03-23T12:01:53;15.50;69.80
26707;DHT22;14319;49.422;10.934;2023-03-23T12:06:31;15.20;70.30
26707;DHT22;14319;49.422;10.934;2023-03-23T12:13:14;15.50;70.10
26707;DHT22;14319;49.422;10.934;2023-03-23T12:15:27;15.60;69.60
26707;DHT22;14319;49.422;10.934;2023-03-23T12:17:52;15.90;67.40
26707;DHT22;14319;49.422;10.934;2023-03-23T12:22:47;15.80;67.80
26707;DHT22;14319;49.422;10.934;2023-03-23T12:27:14;15.90;66.80
26707;DHT22;14319;49.422;10.934;2023-03-23T12:32:19;16.10;67.20
26707;DHT22;14319;49.422;10.934;2023-03-23T12:34:26;16.10;66.90
26707;DHT22;14319;49.422;10.934;2023-03-23T12:41:03;16.20;66.80
26707;DHT22;14319;49.422;10.934;2023-03-23T12:45:45;16.10;66.40
26707;DHT22;14319;49.422;10.934;2023-03-23T12:48:07;16.10;66.80
26707;DHT22;14319;49.422;10.934;2023-03-23T12:52:26;16.20;65.40
26707;DHT22;14319;49.422;10.934;2023-03-23T12:54:40;16.10;66.90
26707;DHT22;14319;49.422;10.934;2023-03-23T12:56:58;16.30;65.40
26707;DHT22;14319;49.422;10.934;2023-03-23T12:59:19;16.20;64.80
26707;DHT22;14319;49.422;10.934;2023-03-23T13:01:26;16.20;65.10
26707;DHT22;14319;49.422;10.934;2023-03-23T13:03:42;16.20;66.00
26707;DHT22;14319;49.422;10.934;2023-03-23T13:05:54;16.30;65.30
26707;DHT22;14319;49.422;10.934;2023-03-23T13:08:11;16.20;64.90
26707;DHT22;14319;49.422;10.934;2023-03-23T13:10:21;16.20;65.60
26707;DHT22;14319;49.422;10.934;2023-03-23T13:12:23;16.20;65.60
26707;DHT22;14319;49.422;10.934;2023-03-23T13:17:10;16.10;65.00
26707;DHT22;14319;49.422;10.934;2023-03-23T13:19:30;16.20;64.50
26707;DHT22;14319;49.422;10.934;2023-03-23T13:21:44;16.20;64.40
26707;DHT22;14319;49.422;10.934;2023-03-23T13:26:05;16.20;65.90
26707;DHT22;14319;49.422;10.934;2023-03-23T13:28:24;16.20;66.00
26707;DHT22;14319;49.422;10.934;2023-03-23T13:30:26;16.20;65.10
26707;DHT22;14319;49.422;10.934;2023-03-23T13:32:35;16.20;65.60
26707;DHT22;14319;49.422;10.934;2023-03-23T13:34:37;16.20;66.60
26707;DHT22;14319;49.422;10.934;2023-03-23T13:36:42;16.30;65.40
26707;DHT22;14319;49.422;10.934;2023-03-23T13:38:49;16.30;65.40
26707;DHT22;14319;49.422;10.934;2023-03-23T13:40:51;16.50;65.60
26707;DHT22;14319;49.422;10.934;2023-03-23T13:42:55;16.50;64.30
26707;DHT22;14319;49.422;10.934;2023-03-23T13:49:24;16.70;63.90
26707;DHT22;14319;49.422;10.934;2023-03-23T13:53:47;16.70;64.50
26707;DHT22;14319;49.422;10.934;2023-03-23T13:55:50;16.60;63.50
26707;DHT22;14319;49.422;10.934;2023-03-23T13:57:57;16.60;65.10
26707;DHT22;14319;49.422;10.934;2023-03-23T14:00:24;16.70;64.60
26707;DHT22;14319;49.422;10.934;2023-03-23T14:04:33;16.60;64.70
26707;DHT22;14319;49.422;10.934;2023-03-23T14:06:35;16.40;64.00
26707;DHT22;14319;49.422;10.934;2023-03-23T14:08:43;16.50;65.10
26707;DHT22;14319;49.422;10.934;2023-03-23T14:10:54;16.60;65.10
26707;DHT22;14319;49.422;10.934;2023-03-23T14:12:59;16.60;64.60
26707;DHT22;14319;49.422;10.934;2023-03-23T14:15:02;16.70;65.60
26707;DHT22;14319;49.422;10.934;2023-03-23T14:17:16;16.80;64.40
26707;DHT22;14319;49.422;10.934;2023-03-23T14:19:27;16.80;64.20
26707;DHT22;14319;49.422;10.934;2023-03-23T14:21:37;16.80;64.30
26707;DHT22;14319;49.422;10.934;2023-03-23T14:23:41;16.80;63.90
26707;DHT22;14319;49.422;10.934;2023-03-23T14:25:42;16.70;64.10
26707;DHT22;14319;49.422;10.934;2023-03-23T14:27:43;16.60;64.80
26707;DHT22;14319;49.422;10.934;2023-03-23T14:29:46;16.60;64.70
26707;DHT22;14319;49.422;10.934;2023-03-23T14:31:56;16.60;64.60
26707;DHT22;14319;49.422;10.934;2023-03-23T14:34:03;16.70;64.80
26707;DHT22;14319;49.422;10.934;2023-03-23T14:36:04;16.80;65.00
26707;DHT22;14319;49.422;10.934;2023-03-23T14:38:14;16.80;64.90